Time;durP1;ratioP1;P1;durP2;ratioP2;P2;SDS_P1;SDS_P2;PMS_P1;PMS_P2;Temp;Humidity;BMP_temperature;BMP_pressure;BME280_temperature;BME280_humidity;BME280_pressure;Samples;Min_cycle;Max_cycle;Signal;HPM_P1;HPM_P2
2022/05/22 00:02:01;;;;;;;0.77;0.50;;;14.20;99.90;;;;;;5013406;28;20407;-70
2022/05/22 00:04:26;;;;;;;1.77;0.70;;;14.20;99.90;;;;;;5012993;28;20942;-71
2022/05/22 00:06:52;;;;;;;1.40;0.80;;;14.20;99.90;;;;;;5011850;28;20459;-70
2022/05/22 00:09:18;;;;;;;0.80;0.50;;;14.20;99.90;;;;;;5013278;28;20677;-70
2022/05/22 00:11:44;;;;;;;0.80;0.50;;;14.20;99.90;;;;;;5011885;28;20415;-70
2022/05/22 00:14:13;;;;;;;0.80;0.50;;;14.20;99.90;;;;;;5012910;28;20259;-70
2022/05/22 00:16:46;;;;;;;0.80;0.50;;;14.20;99.90;;;;;;5013087;28;20733;-69
2022/05/22 00:19:18;;;;;;;1.00;0.50;;;14.20;99.90;;;;;;5012764;28;21182;-70
2022/05/22 00:21:44;;;;;;;0.70;0.50;;;14.20;99.90;;;;;;5011904;28;20415;-70
2022/05/22 00:24:11;;;;;;;0.80;0.50;;;14.20;99.90;;;;;;5012783;28;20410;-70
2022/05/22 00:26:38;;;;;;;0.80;0.50;;;14.20;99.90;;;;;;5012914;28;20653;-70
2022/05/22 00:29:04;;;;;;;0.80;0.50;;;14.10;99.90;;;;;;5012590;28;20853;-70
2022/05/22 00:31:29;;;;;;;0.80;0.50;;;14.10;99.90;;;;;;5012919;28;20419;-70
2022/05/22 00:33:55;;;;;;;0.80;0.50;;;14.10;99.90;;;;;;5011426;28;20470;-70
2022/05/22 00:36:20;;;;;;;0.80;0.50;;;14.10;99.90;;;;;;5011493;28;20672;-69
2022/05/22 00:38:46;;;;;;;0.80;0.50;;;14.00;99.90;;;;;;5012688;28;20271;-70
2022/05/22 00:41:13;;;;;;;0.80;0.50;;;14.00;99.90;;;;;;5012717;28;20172;-70
2022/05/22 00:43:46;;;;;;;0.80;0.50;;;14.00;99.90;;;;;;5011221;28;20230;-71
2022/05/22 00:46:14;;;;;;;0.80;0.60;;;14.00;99.90;;;;;;5012313;28;20457;-70
2022/05/22 00:48:43;;;;;;;0.80;0.50;;;14.00;99.90;;;;;;5012446;28;20443;-70
2022/05/22 00:51:22;;;;;;;1.63;0.80;;;13.90;99.90;;;;;;5011259;28;20454;-70
2022/05/22 00:53:58;;;;;;;0.80;0.50;;;13.80;99.90;;;;;;5012536;28;20501;-70
2022/05/22 00:56:27;;;;;;;0.80;0.50;;;13.80;99.90;;;;;;5012285;28;20425;-70
2022/05/22 00:58:55;;;;;;;0.80;0.60;;;13.70;99.90;;;;;;5012315;28;20963;-71
2022/05/22 01:01:21;;;;;;;0.77;0.57;;;13.70;99.90;;;;;;5012705;28;20411;-69
2022/05/22 01:03:47;;;;;;;0.80;0.50;;;13.70;99.90;;;;;;5012342;28;20794;-71
2022/05/22 01:06:19;;;;;;;1.17;1.07;;;13.60;99.90;;;;;;5010855;28;20235;-70
2022/05/22 01:08:47;;;;;;;0.80;0.60;;;13.60;99.90;;;;;;5012584;28;20959;-69
2022/05/22 01:11:16;;;;;;;0.80;0.50;;;13.60;99.90;;;;;;5011916;28;20461;-70
2022/05/22 01:13:49;;;;;;;0.80;0.50;;;13.50;99.90;;;;;;5012125;28;20407;-70
2022/05/22 01:16:15;;;;;;;0.80;0.70;;;13.40;99.90;;;;;;5012054;28;20503;-70
2022/05/22 01:18:52;;;;;;;0.73;0.50;;;13.40;99.90;;;;;;5011957;28;20458;-70
2022/05/22 01:21:24;;;;;;;0.80;0.57;;;13.40;99.90;;;;;;5012331;28;20179;-70
2022/05/22 01:23:50;;;;;;;0.80;0.50;;;13.30;99.90;;;;;;5012079;28;20497;-70
2022/05/22 01:26:16;;;;;;;0.83;0.67;;;13.30;99.90;;;;;;5011884;28;20486;-70
2022/05/22 01:28:42;;;;;;;0.80;0.50;;;13.30;99.90;;;;;;5012067;28;20399;-69
2022/05/22 01:31:08;;;;;;;0.80;0.50;;;13.20;99.90;;;;;;5012066;28;20920;-70
2022/05/22 01:33:35;;;;;;;0.80;0.50;;;13.20;99.90;;;;;;5012062;28;20458;-70
2022/05/22 01:36:01;;;;;;;0.80;0.50;;;13.20;99.90;;;;;;5011784;28;20900;-70
2022/05/22 01:38:27;;;;;;;0.80;0.50;;;13.10;99.90;;;;;;5011896;28;20414;-70
2022/05/22 01:40:53;;;;;;;0.80;0.50;;;13.10;99.90;;;;;;5012208;28;20403;-70
2022/05/22 01:43:18;;;;;;;0.80;0.60;;;13.10;99.90;;;;;;5012006;28;20176;-70
2022/05/22 01:45:45;;;;;;;0.90;0.70;;;13.00;99.90;;;;;;5011643;28;20196;-70
2022/05/22 01:48:11;;;;;;;0.80;0.50;;;13.00;99.90;;;;;;5015176;28;20161;-68
2022/05/22 01:50:38;;;;;;;0.70;0.50;;;13.00;99.90;;;;;;5015923;28;20794;-69
2022/05/22 01:53:04;;;;;;;0.80;0.50;;;12.90;99.90;;;;;;5015703;28;20435;-70
2022/05/22 01:55:30;;;;;;;0.70;0.50;;;12.90;99.90;;;;;;5015467;28;20407;-70
2022/05/22 01:57:55;;;;;;;0.70;0.50;;;12.90;99.90;;;;;;5015688;28;20851;-70
2022/05/22 02:00:23;;;;;;;0.80;0.50;;;12.90;99.90;;;;;;5014432;28;20729;-69
2022/05/22 02:02:48;;;;;;;0.70;0.50;;;12.90;99.90;;;;;;5015549;28;20214;-70
2022/05/22 02:05:16;;;;;;;0.80;0.60;;;12.80;99.90;;;;;;5015288;28;20403;-70
2022/05/22 02:10:27;;;;;;;0.80;0.50;;;12.80;99.90;;;;;;5015870;28;20446;-70
2022/05/22 02:12:53;;;;;;;0.80;0.50;;;12.70;99.90;;;;;;5015351;28;20431;-70
2022/05/22 02:15:20;;;;;;;0.70;0.50;;;12.70;99.90;;;;;;5015246;28;20161;-69
2022/05/22 02:17:45;;;;;;;0.80;0.50;;;12.70;99.90;;;;;;5014990;28;20438;-70
2022/05/22 02:20:11;;;;;;;0.80;0.50;;;12.60;99.90;;;;;;5015144;28;20426;-69
2022/05/22 02:22:44;;;;;;;0.70;0.50;;;12.60;99.90;;;;;;5013984;28;20199;-69
2022/05/22 02:25:12;;;;;;;0.80;0.50;;;12.60;99.90;;;;;;5014805;28;20403;-70
2022/05/22 02:27:37;;;;;;;0.80;0.50;;;12.50;99.90;;;;;;5015130;28;20415;-69
2022/05/22 02:30:04;;;;;;;0.70;0.50;;;12.50;99.90;;;;;;5013746;28;20497;-71
2022/05/22 02:32:30;;;;;;;0.80;0.50;;;12.50;99.90;;;;;;5013266;28;20222;-70
2022/05/22 02:34:55;;;;;;;3.53;1.43;;;12.50;99.90;;;;;;5014714;28;20800;-70
2022/05/22 02:37:21;;;;;;;0.90;0.70;;;12.50;99.90;;;;;;5014926;28;20173;-70
2022/05/22 02:39:46;;;;;;;0.70;0.50;;;12.40;99.90;;;;;;5014893;28;20219;-69
2022/05/22 02:42:12;;;;;;;0.70;0.50;;;12.40;99.90;;;;;;5014796;28;20180;-70
2022/05/22 02:44:37;;;;;;;0.70;0.50;;;12.30;99.90;;;;;;5013368;28;20176;-70
2022/05/22 02:47:03;;;;;;;0.80;0.50;;;12.30;99.90;;;;;;5014603;28;20219;-70
2022/05/22 02:49:29;;;;;;;0.80;0.60;;;12.30;99.90;;;;;;5014652;28;20184;-70
2022/05/22 02:51:55;;;;;;;0.80;0.50;;;12.30;99.90;;;;;;5014618;28;20188;-70
2022/05/22 02:54:21;;;;;;;0.70;0.50;;;12.20;99.90;;;;;;5013375;28;20556;-68
2022/05/22 02:56:47;;;;;;;0.70;0.50;;;12.20;99.90;;;;;;5014429;28;20168;-70
2022/05/22 02:59:13;;;;;;;0.70;0.50;;;12.20;99.90;;;;;;5013396;28;20975;-70
2022/05/22 03:01:38;;;;;;;0.80;0.50;;;12.20;99.90;;;;;;5014534;28;20175;-70
2022/05/22 03:04:04;;;;;;;0.70;0.50;;;12.10;99.90;;;;;;5013031;28;20419;-70
2022/05/22 03:06:38;;;;;;;0.80;0.50;;;12.10;99.90;;;;;;5014115;28;20204;-70
2022/05/22 03:09:13;;;;;;;0.73;0.50;;;12.00;99.90;;;;;;5013002;28;20218;-70
2022/05/22 03:11:40;;;;;;;0.80;0.50;;;12.00;99.90;;;;;;5014281;28;20398;-70
2022/05/22 03:14:06;;;;;;;0.80;0.50;;;12.00;99.90;;;;;;5014210;28;20486;-70
2022/05/22 03:16:32;;;;;;;0.77;0.50;;;12.00;99.90;;;;;;5014038;28;20499;-70
2022/05/22 03:18:59;;;;;;;0.70;0.50;;;12.00;99.90;;;;;;5012603;28;20235;-70
2022/05/22 03:21:27;;;;;;;0.70;0.50;;;11.90;99.90;;;;;;5014021;28;20434;-70
2022/05/22 03:23:53;;;;;;;0.80;0.50;;;11.90;99.90;;;;;;5014078;28;20810;-70
2022/05/22 03:26:18;;;;;;;0.80;0.50;;;11.90;99.90;;;;;;5012461;28;20521;-70
2022/05/22 03:28:44;;;;;;;0.70;0.50;;;11.90;99.90;;;;;;5013695;28;20403;-71
2022/05/22 03:31:09;;;;;;;0.80;0.50;;;11.90;99.90;;;;;;5013863;28;20174;-70
2022/05/22 03:33:35;;;;;;;0.70;0.50;;;11.90;99.90;;;;;;5013767;28;20165;-70
2022/05/22 03:36:00;;;;;;;0.80;0.50;;;11.80;99.90;;;;;;5013857;28;20726;-70
2022/05/22 03:38:26;;;;;;;0.80;0.60;;;11.80;99.90;;;;;;5013729;28;20172;-70
2022/05/22 03:40:52;;;;;;;1.00;0.80;;;11.80;99.90;;;;;;5012373;28;20179;-69
2022/05/22 03:43:17;;;;;;;0.70;0.50;;;11.80;99.90;;;;;;5013684;28;20206;-69
2022/05/22 03:45:44;;;;;;;0.80;0.50;;;11.80;99.90;;;;;;5013290;28;20674;-70
2022/05/22 03:48:10;;;;;;;0.80;0.50;;;11.70;99.90;;;;;;5013654;28;20161;-69
2022/05/22 03:50:36;;;;;;;0.70;0.50;;;11.70;99.90;;;;;;5013531;28;20550;-69
2022/05/22 03:53:02;;;;;;;0.80;0.60;;;11.70;99.90;;;;;;5013521;28;20407;-68
2022/05/22 03:55:27;;;;;;;0.90;0.60;;;11.70;99.90;;;;;;5013136;28;20836;-70
2022/05/22 03:57:54;;;;;;;0.90;0.70;;;11.70;99.90;;;;;;5013488;28;20415;-70
2022/05/22 04:00:21;;;;;;;1.10;0.60;;;11.70;99.90;;;;;;5013276;28;20180;-70
2022/05/22 04:02:47;;;;;;;0.80;0.50;;;11.70;99.90;;;;;;5013406;28;20408;-70
2022/05/22 04:05:13;;;;;;;0.90;0.70;;;11.60;99.90;;;;;;5012961;28;20411;-70
2022/05/22 04:07:41;;;;;;;1.00;0.70;;;11.60;99.90;;;;;;5013294;28;20160;-69
2022/05/22 04:10:08;;;;;;;1.10;0.93;;;11.60;99.90;;;;;;5012979;28;20594;-70
2022/05/22 04:12:33;;;;;;;1.80;1.70;;;11.70;99.90;;;;;;5013439;28;20403;-70
2022/05/22 04:14:59;;;;;;;1.30;1.20;;;11.70;99.90;;;;;;5012827;28;20457;-70
2022/05/22 04:17:25;;;;;;;1.77;1.60;;;11.70;99.90;;;;;;5012997;28;20431;-69
2022/05/22 04:19:50;;;;;;;0.87;0.80;;;11.80;99.90;;;;;;5012989;28;20190;-71
2022/05/22 04:22:16;;;;;;;0.73;0.50;;;11.80;99.90;;;;;;5013165;28;20203;-70
2022/05/22 04:27:27;;;;;;;0.97;0.97;;;11.90;99.90;;;;;;5013035;28;20450;-69
2022/05/22 04:29:52;;;;;;;1.30;0.80;;;11.90;99.90;;;;;;5011452;28;20422;-70
2022/05/22 04:32:18;;;;;;;0.80;0.80;;;12.00;99.90;;;;;;5012728;28;20407;-69
2022/05/22 04:34:43;;;;;;;1.07;1.00;;;12.00;99.90;;;;;;5012693;28;20165;-69
2022/05/22 04:37:09;;;;;;;2.40;1.23;;;12.10;99.90;;;;;;5012753;28;20542;-69
2022/05/22 04:39:35;;;;;;;1.00;0.80;;;12.10;99.90;;;;;;5012694;28;20191;-70
2022/05/22 04:42:00;;;;;;;0.77;0.63;;;12.20;99.90;;;;;;5012708;28;20280;-69
2022/05/22 04:44:26;;;;;;;0.80;0.60;;;12.30;99.90;;;;;;5012658;28;20477;-70
2022/05/22 04:46:51;;;;;;;1.00;0.80;;;12.30;99.90;;;;;;5012292;28;20196;-69
2022/05/22 04:49:17;;;;;;;0.90;0.60;;;12.40;99.90;;;;;;5012567;28;20789;-70
2022/05/22 04:51:42;;;;;;;1.27;0.87;;;12.50;99.90;;;;;;5012488;28;20243;-70
2022/05/22 04:54:09;;;;;;;1.30;0.70;;;12.50;99.90;;;;;;5011163;28;20179;-70
2022/05/22 04:56:35;;;;;;;1.10;0.80;;;12.60;99.90;;;;;;5012306;28;20247;-70
2022/05/22 04:59:00;;;;;;;0.80;0.60;;;12.60;99.90;;;;;;5011075;28;20466;-70
2022/05/22 05:01:26;;;;;;;0.70;0.50;;;12.70;99.90;;;;;;5012421;28;20196;-69
2022/05/22 05:03:51;;;;;;;0.77;0.60;;;12.70;99.90;;;;;;5012325;28;20226;-70
2022/05/22 05:06:17;;;;;;;0.83;0.67;;;12.80;99.90;;;;;;5011985;28;20224;-70
2022/05/22 05:08:42;;;;;;;1.17;1.07;;;12.80;99.90;;;;;;5012190;28;20244;-70
2022/05/22 05:11:11;;;;;;;5.50;1.00;;;12.90;99.90;;;;;;5012380;28;20315;-69
2022/05/22 05:13:37;;;;;;;1.20;1.10;;;13.00;99.90;;;;;;5012329;28;20540;-69
2022/05/22 05:16:08;;;;;;;1.97;0.90;;;13.00;99.90;;;;;;5010826;28;20407;-69
2022/05/22 05:18:35;;;;;;;1.30;1.20;;;13.10;99.90;;;;;;5012064;28;20556;-70
2022/05/22 05:21:03;;;;;;;12.30;1.00;;;13.10;99.90;;;;;;5011832;28;20435;-70
2022/05/22 05:23:29;;;;;;;3.90;1.63;;;13.20;99.90;;;;;;5011938;28;20411;-70
2022/05/22 05:25:54;;;;;;;2.60;0.80;;;13.30;99.90;;;;;;5011928;28;20458;-69
2022/05/22 05:28:20;;;;;;;2.40;0.93;;;13.40;99.90;;;;;;5010926;28;20164;-69
2022/05/22 05:30:46;;;;;;;1.87;0.70;;;13.60;99.90;;;;;;5012127;28;20712;-72
2022/05/22 05:33:11;;;;;;;1.00;0.90;;;13.70;99.90;;;;;;5012105;28;20541;-70
2022/05/22 05:35:37;;;;;;;1.23;1.10;;;13.80;99.90;;;;;;5011789;28;20172;-70
2022/05/22 05:38:03;;;;;;;6.17;3.20;;;13.90;99.90;;;;;;5012207;28;20168;-69
2022/05/22 05:40:29;;;;;;;1.67;1.03;;;14.10;99.90;;;;;;5011995;28;20192;-70
2022/05/22 05:42:54;;;;;;;1.63;1.00;;;14.20;99.90;;;;;;5010984;28;20477;-69
2022/05/22 05:45:21;;;;;;;1.27;0.80;;;14.40;99.90;;;;;;5011696;28;20642;-72
2022/05/22 05:47:47;;;;;;;0.90;0.70;;;14.50;99.90;;;;;;5010767;28;20196;-70
2022/05/22 05:50:16;;;;;;;1.20;1.10;;;14.60;99.90;;;;;;5011970;28;20430;-70
2022/05/22 05:52:41;;;;;;;1.77;1.27;;;14.70;99.90;;;;;;5011985;28;20399;-69
2022/05/22 05:55:07;;;;;;;1.23;1.13;;;14.80;99.90;;;;;;5010342;28;20421;-69
2022/05/22 05:57:33;;;;;;;1.00;0.90;;;14.90;99.90;;;;;;5012002;28;20175;-69
2022/05/22 05:59:59;;;;;;;0.90;0.77;;;15.10;99.90;;;;;;5011843;28;20196;-70
2022/05/22 06:02:25;;;;;;;1.77;1.13;;;15.20;99.90;;;;;;5011888;28;20461;-69
2022/05/22 06:04:50;;;;;;;2.43;1.53;;;15.40;99.90;;;;;;5010264;28;20168;-69
2022/05/22 06:07:16;;;;;;;2.93;1.33;;;15.60;99.90;;;;;;5011677;28;20199;-70
2022/05/22 06:09:42;;;;;;;1.63;1.10;;;15.90;99.90;;;;;;5011701;28;20426;-69
2022/05/22 06:12:08;;;;;;;1.63;1.10;;;16.20;99.90;;;;;;5011652;28;20179;-70
2022/05/22 06:14:34;;;;;;;1.00;0.87;;;16.50;99.90;;;;;;5011680;28;20427;-69
2022/05/22 06:17:00;;;;;;;1.27;1.13;;;16.80;99.90;;;;;;5010039;28;20414;-69
2022/05/22 06:22:13;;;;;;;1.83;1.50;;;17.50;99.90;;;;;;5011678;28;20225;-70
2022/05/22 06:24:39;;;;;;;1.30;1.20;;;17.90;99.90;;;;;;5011660;28;20797;-70
2022/05/22 06:27:04;;;;;;;2.20;1.00;;;18.00;99.90;;;;;;5011241;28;20473;-70
2022/05/22 06:29:30;;;;;;;1.27;0.80;;;18.20;99.90;;;;;;5011556;28;20539;-70
2022/05/22 06:31:56;;;;;;;1.40;1.20;;;18.60;99.90;;;;;;5011521;28;20400;-69
2022/05/22 06:34:24;;;;;;;1.47;1.07;;;18.70;99.90;;;;;;5013329;28;20176;-71
2022/05/22 06:36:51;;;;;;;1.20;0.90;;;19.00;99.90;;;;;;5014736;28;20164;-70
2022/05/22 06:40:02;;;;;;;1.53;0.80;;;19.40;99.90;;;;;;5013644;28;21018;-70
2022/05/22 06:42:04;;;;;;;1.33;0.87;;;19.60;99.90;;;;;;5007538;28;20925;-70
2022/05/22 06:44:29;;;;;;;1.83;1.73;;;19.80;99.90;;;;;;5014885;28;20405;-70
2022/05/22 06:46:55;;;;;;;2.50;1.37;;;20.00;99.90;;;;;;5014471;28;20462;-70
2022/05/22 06:49:20;;;;;;;1.27;1.10;;;20.30;99.90;;;;;;5014749;28;20184;-70
2022/05/22 06:51:47;;;;;;;1.87;1.10;;;20.70;99.90;;;;;;5014722;28;20179;-70
2022/05/22 06:54:12;;;;;;;2.40;1.27;;;21.00;99.90;;;;;;5014647;28;20164;-69
2022/05/22 06:56:38;;;;;;;1.03;0.90;;;21.30;99.90;;;;;;5014308;28;20403;-70
2022/05/22 06:59:03;;;;;;;1.47;0.80;;;21.60;99.90;;;;;;5014608;28;20212;-71
2022/05/22 07:01:29;;;;;;;1.43;1.03;;;22.00;99.90;;;;;;5014428;28;20168;-70
2022/05/22 07:03:54;;;;;;;1.33;1.03;;;22.50;99.90;;;;;;5014476;28;20168;-69
2022/05/22 07:06:20;;;;;;;0.90;0.70;;;23.10;99.90;;;;;;5014139;28;20253;-70
2022/05/22 07:08:46;;;;;;;0.87;0.70;;;23.50;99.90;;;;;;5014346;28;20693;-70
2022/05/22 07:13:55;;;;;;;0.90;0.80;;;24.60;99.90;;;;;;5014127;28;20227;-70
2022/05/22 07:16:21;;;;;;;0.90;0.80;;;25.30;99.90;;;;;;5014083;28;20403;-71
2022/05/22 07:18:46;;;;;;;1.83;1.00;;;26.10;99.90;;;;;;5014052;28;20298;-70
2022/05/22 07:21:12;;;;;;;4.13;1.47;;;26.70;99.90;;;;;;5014145;28;20173;-70
2022/05/22 07:23:37;;;;;;;2.17;1.20;;;27.40;99.90;;;;;;5014032;28;20161;-70
2022/05/22 07:26:05;;;;;;;2.83;1.50;;;28.10;99.90;;;;;;5013850;28;20246;-70
2022/05/22 07:28:31;;;;;;;1.10;1.00;;;28.90;99.90;;;;;;5013914;28;20163;-70
2022/05/22 07:30:57;;;;;;;1.00;0.80;;;29.60;99.90;;;;;;5014121;28;20784;-70
2022/05/22 07:33:23;;;;;;;3.30;1.43;;;30.20;99.90;;;;;;5012624;28;20168;-71
2022/05/22 07:35:56;;;;;;;1.13;0.97;;;31.10;99.90;;;;;;5013617;28;20417;-70
2022/05/22 07:38:22;;;;;;;1.10;0.97;;;32.00;99.90;;;;;;5013876;28;20205;-70
2022/05/22 07:40:48;;;;;;;1.20;1.00;;;33.00;96.70;;;;;;5013743;28;20427;-70
2022/05/22 07:43:14;;;;;;;1.00;0.80;;;33.80;93.70;;;;;;5013692;28;20411;-71
2022/05/22 07:45:40;;;;;;;1.00;0.80;;;34.70;91.40;;;;;;5012964;28;20453;-71
2022/05/22 07:48:06;;;;;;;1.60;1.50;;;35.70;86.70;;;;;;5013807;28;20168;-71
2022/05/22 07:50:31;;;;;;;1.30;1.10;;;36.40;74.20;;;;;;5013589;28;20546;-71
2022/05/22 07:52:57;;;;;;;1.23;0.90;;;37.10;64.50;;;;;;5013556;28;20263;-71
2022/05/22 07:55:23;;;;;;;0.90;0.80;;;37.90;60.30;;;;;;5013145;28;20172;-71
2022/05/22 07:57:49;;;;;;;1.17;1.07;;;38.90;58.70;;;;;;5013735;28;20581;-71
2022/05/22 08:00:18;;;;;;;0.90;0.80;;;39.70;57.40;;;;;;5013389;28;20432;-71
2022/05/22 08:02:44;;;;;;;1.20;1.10;;;40.70;55.90;;;;;;5013389;28;20407;-71
2022/05/22 08:05:11;;;;;;;1.10;1.00;;;41.70;54.70;;;;;;5013074;28;20403;-71
2022/05/22 08:07:37;;;;;;;0.90;0.80;;;42.50;51.50;;;;;;5013222;28;20204;-71
2022/05/22 08:10:05;;;;;;;1.10;1.00;;;43.20;50.00;;;;;;5011856;28;20972;-71
2022/05/22 08:12:36;;;;;;;1.00;0.90;;;43.70;48.70;;;;;;5013224;28;20646;-70
2022/05/22 08:15:02;;;;;;;1.40;1.30;;;44.20;47.60;;;;;;5012983;28;20482;-72
2022/05/22 08:17:27;;;;;;;1.40;1.20;;;44.40;46.40;;;;;;5013007;28;20474;-72
2022/05/22 08:19:53;;;;;;;3.23;1.20;;;44.10;44.80;;;;;;5012960;28;20196;-71
2022/05/22 08:22:19;;;;;;;1.57;1.10;;;43.80;44.40;;;;;;5013064;28;20180;-72
2022/05/22 08:24:44;;;;;;;1.20;1.10;;;43.50;43.40;;;;;;5028101;28;20187;-71
2022/05/22 08:27:10;;;;;;;1.10;1.00;;;43.10;43.20;;;;;;5012649;28;21118;-72
2022/05/22 08:29:36;;;;;;;1.20;1.10;;;42.70;43.20;;;;;;5012957;28;20188;-72
2022/05/22 08:32:02;;;;;;;1.50;1.40;;;42.40;43.40;;;;;;5013025;28;20247;-71
2022/05/22 08:34:27;;;;;;;1.57;1.40;;;42.20;43.30;;;;;;5012822;28;20171;-71
2022/05/22 08:36:53;;;;;;;1.10;1.00;;;42.00;43.40;;;;;;5012587;28;20176;-71
2022/05/22 08:39:18;;;;;;;1.20;1.10;;;42.00;43.40;;;;;;5012618;28;20196;-71
2022/05/22 08:41:48;;;;;;;1.80;1.30;;;42.40;43.50;;;;;;5012764;28;20172;-72
2022/05/22 08:44:18;;;;;;;0.97;0.87;;;42.90;43.10;;;;;;5012737;28;20178;-72
2022/05/22 08:47:03;;;;;;;2.90;1.10;;;43.80;42.70;;;;;;5012431;28;20450;-72
2022/05/22 08:49:48;;;;;;;1.07;0.97;;;44.90;42.00;;;;;;5012655;28;20431;-71
2022/05/22 08:52:30;;;;;;;1.50;1.10;;;46.10;41.40;;;;;;5012687;28;20494;-72
2022/05/22 08:55:09;;;;;;;1.20;1.10;;;47.10;40.60;;;;;;5012561;28;20440;-70
2022/05/22 09:00:31;;;;;;;1.30;1.20;;;49.00;39.30;;;;;;5012733;28;20440;-72
2022/05/22 09:03:04;;;;;;;1.40;1.30;;;49.80;38.50;;;;;;5012451;28;20553;-72
2022/05/22 09:05:31;;;;;;;1.30;1.20;;;50.40;37.90;;;;;;5012096;28;20463;-72
2022/05/22 09:08:06;;;;;;;1.27;1.17;;;50.80;37.00;;;;;;5012393;28;20403;-73
2022/05/22 09:10:55;;;;;;;1.30;1.20;;;51.20;36.20;;;;;;5012260;28;20484;-72
2022/05/22 09:13:36;;;;;;;1.30;1.20;;;51.50;35.80;;;;;;5012346;28;20468;-73
2022/05/22 09:16:19;;;;;;;1.63;1.53;;;51.30;35.10;;;;;;5012065;28;20416;-72
2022/05/22 09:19:07;;;;;;;1.40;1.30;;;51.50;34.70;;;;;;5012075;28;20402;-72
2022/05/22 09:21:55;;;;;;;1.30;1.20;;;51.80;34.50;;;;;;5012361;28;20820;-72
2022/05/22 09:24:41;;;;;;;1.77;1.67;;;51.80;33.70;;;;;;5012273;28;20524;-69
2022/05/22 09:27:08;;;;;;;1.57;1.47;;;52.00;33.60;;;;;;5011972;28;20403;-69
2022/05/22 09:29:47;;;;;;;1.33;1.23;;;51.90;33.00;;;;;;5012137;28;20430;-70
2022/05/22 09:32:22;;;;;;;1.40;1.30;;;51.90;32.90;;;;;;5012172;28;20366;-70
2022/05/22 09:34:53;;;;;;;1.60;1.50;;;52.10;32.80;;;;;;5012063;28;20374;-70
2022/05/22 09:37:30;;;;;;;1.60;1.50;;;52.70;32.50;;;;;;5011734;28;20454;-69
2022/05/22 09:40:08;;;;;;;1.53;1.43;;;53.50;32.10;;;;;;5012115;28;20860;-70
2022/05/22 09:43:11;;;;;;;1.50;1.40;;;53.70;31.40;;;;;;5012173;28;20399;-70
2022/05/22 09:45:54;;;;;;;1.50;1.40;;;53.70;31.20;;;;;;5011745;28;20407;-71
2022/05/22 09:48:38;;;;;;;1.33;1.23;;;52.50;30.40;;;;;;5011939;28;20399;-73
2022/05/22 09:51:11;;;;;;;1.30;1.20;;;51.00;30.70;;;;;;5012066;28;20380;-72
2022/05/22 09:53:51;;;;;;;1.30;1.20;;;49.30;31.00;;;;;;5011901;28;20414;-73
2022/05/22 09:56:35;;;;;;;1.20;1.10;;;47.70;31.40;;;;;;5011589;28;20421;-71
2022/05/22 09:59:18;;;;;;;1.30;1.20;;;47.00;32.40;;;;;;5011994;28;20431;-72
2022/05/22 10:01:48;;;;;;;1.47;1.37;;;47.60;32.80;;;;;;5011883;28;20796;-72
2022/05/22 10:04:24;;;;;;;1.40;1.30;;;48.70;32.50;;;;;;5011862;28;20908;-73
2022/05/22 10:07:04;;;;;;;1.30;1.20;;;50.00;32.00;;;;;;5011510;28;20951;-72
2022/05/22 10:10:01;;;;;;;1.33;1.23;;;51.00;31.50;;;;;;5015474;28;20409;-71
2022/05/22 10:12:53;;;;;;;1.50;1.40;;;51.80;31.60;;;;;;5015531;28;21105;-72
2022/05/22 10:15:33;;;;;;;1.23;1.13;;;52.00;30.80;;;;;;5015153;28;20374;-72
2022/05/22 10:18:17;;;;;;;1.60;1.50;;;50.90;30.50;;;;;;5015279;28;20411;-72
2022/05/22 10:20:58;;;;;;;1.40;1.30;;;50.30;31.30;;;;;;5015371;28;20764;-73
2022/05/22 10:23:55;;;;;;;1.30;1.20;;;50.90;31.10;;;;;;5015188;28;20452;-72
2022/05/22 10:27:00;;;;;;;1.50;1.40;;;52.30;31.00;;;;;;5015243;28;20389;-73
2022/05/22 10:29:44;;;;;;;1.57;1.47;;;52.90;30.20;;;;;;5015210;28;21057;-73
2022/05/22 10:32:41;;;;;;;1.73;1.63;;;52.60;29.70;;;;;;5015129;28;20377;-72
2022/05/22 10:35:32;;;;;;;1.40;1.30;;;51.90;29.80;;;;;;4990484;28;20806;-73
2022/05/22 10:38:21;;;;;;;1.50;1.40;;;52.60;29.80;;;;;;5014967;28;20403;-72
2022/05/22 10:43:39;;;;;;;2.00;1.90;;;55.20;29.50;;;;;;5015269;28;20486;-71
2022/05/22 10:46:05;;;;;;;1.80;1.70;;;56.20;28.90;;;;;;5014641;28;20407;-70
2022/05/22 10:48:33;;;;;;;1.63;1.53;;;56.70;28.20;;;;;;5014678;28;20453;-70
2022/05/22 10:51:11;;;;;;;1.80;1.70;;;55.60;27.20;;;;;;5013528;28;20199;-70
2022/05/22 10:53:45;;;;;;;1.50;1.40;;;54.20;27.40;;;;;;5014747;28;20533;-70
2022/05/22 10:56:18;;;;;;;1.80;1.70;;;54.10;27.90;;;;;;5014432;28;20426;-70
2022/05/22 10:58:59;;;;;;;1.80;1.70;;;54.80;28.10;;;;;;5015128;28;20573;-70
2022/05/22 11:01:28;;;;;;;1.90;1.80;;;55.80;27.90;;;;;;5014642;28;20582;-70
2022/05/22 11:04:14;;;;;;;1.97;1.87;;;57.00;27.50;;;;;;5014730;28;20381;-70
2022/05/22 11:06:56;;;;;;;1.90;1.80;;;56.40;27.10;;;;;;5014309;28;20377;-70
2022/05/22 11:09:27;;;;;;;2.00;1.90;;;56.70;27.20;;;;;;5014395;28;20881;-70
2022/05/22 11:12:07;;;;;;;1.90;1.80;;;57.50;27.00;;;;;;5014441;28;20513;-69
2022/05/22 11:14:35;;;;;;;2.07;1.97;;;58.40;26.90;;;;;;5014344;28;20399;-70
2022/05/22 11:17:26;;;;;;;2.10;2.00;;;59.30;26.60;;;;;;5013835;28;20465;-70
2022/05/22 11:19:54;;;;;;;2.40;2.30;;;60.10;26.50;;;;;;5010337;28;20430;-70
2022/05/22 11:22:58;;;;;;;2.70;2.60;;;60.80;26.10;;;;;;5014225;28;20810;-71
2022/05/22 11:25:43;;;;;;;2.60;2.50;;;61.10;24.30;;;;;;5013972;28;20409;-71
2022/05/22 11:28:38;;;;;;;2.70;2.60;;;61.30;24.20;;;;;;5014076;28;20916;-70
2022/05/22 11:31:25;;;;;;;2.70;2.60;;;61.60;24.40;;;;;;4987306;28;20415;-70
2022/05/22 11:34:04;;;;;;;3.10;3.00;;;61.90;24.20;;;;;;5013976;28;20785;-70
2022/05/22 11:36:37;;;;;;;2.70;2.60;;;62.00;24.00;;;;;;5013565;28;20446;-70
2022/05/22 11:39:18;;;;;;;3.07;2.97;;;62.10;23.80;;;;;;5013827;28;20418;-70
2022/05/22 11:42:02;;;;;;;3.00;2.90;;;62.20;23.90;;;;;;5013943;28;20766;-70
2022/05/22 11:44:34;;;;;;;2.80;2.70;;;62.30;23.90;;;;;;5012435;28;20402;-70
2022/05/22 11:47:18;;;;;;;2.90;2.80;;;62.30;24.10;;;;;;5012186;28;20501;-70
2022/05/22 11:49:57;;;;;;;3.00;2.90;;;62.20;24.20;;;;;;5013766;28;20472;-70
2022/05/22 11:52:54;;;;;;;3.40;3.30;;;62.10;23.30;;;;;;5013674;28;20413;-70
2022/05/22 11:55:26;;;;;;;3.00;2.90;;;61.80;23.20;;;;;;5013361;28;20818;-70
2022/05/22 11:58:03;;;;;;;2.70;2.60;;;61.60;22.40;;;;;;5013505;28;20431;-71
2022/05/22 12:00:42;;;;;;;2.90;2.80;;;61.30;22.50;;;;;;5013460;28;20446;-70
2022/05/22 12:03:13;;;;;;;2.90;2.80;;;61.10;23.10;;;;;;5013345;28;20426;-70
2022/05/22 12:06:02;;;;;;;2.77;2.67;;;61.10;22.80;;;;;;5013105;28;20403;-71
2022/05/22 12:08:59;;;;;;;3.00;2.90;;;60.70;22.60;;;;;;5013336;28;20786;-70
2022/05/22 12:11:45;;;;;;;2.60;2.50;;;60.60;22.90;;;;;;4984843;28;20417;-70
2022/05/22 12:14:29;;;;;;;2.80;2.70;;;60.60;22.80;;;;;;5013200;28;20403;-70
2022/05/22 12:17:18;;;;;;;2.50;2.40;;;60.50;23.10;;;;;;5012644;28;20585;-70
2022/05/22 12:20:13;;;;;;;2.40;2.30;;;60.40;23.20;;;;;;5013067;28;20419;-70
2022/05/22 12:25:36;;;;;;;2.43;2.33;;;60.10;23.30;;;;;;5012795;28;20394;-70
2022/05/22 12:28:12;;;;;;;2.50;2.40;;;59.90;23.40;;;;;;5011909;28;20453;-70
2022/05/22 12:30:39;;;;;;;2.40;2.30;;;59.70;23.40;;;;;;5012739;28;20421;-69
2022/05/22 12:33:11;;;;;;;2.33;2.23;;;59.30;22.40;;;;;;5012930;28;20457;-70
2022/05/22 12:35:38;;;;;;;2.33;2.23;;;59.00;22.70;;;;;;5012500;28;20434;-70
2022/05/22 12:38:07;;;;;;;2.30;2.20;;;58.70;23.00;;;;;;5012778;28;20740;-70
2022/05/22 12:40:47;;;;;;;2.53;2.33;;;58.60;23.20;;;;;;5012647;28;20505;-70
2022/05/22 12:43:17;;;;;;;2.30;2.20;;;58.40;23.30;;;;;;5012699;28;20461;-70
2022/05/22 12:45:44;;;;;;;2.67;2.57;;;58.20;23.20;;;;;;5012365;28;20399;-69
2022/05/22 12:48:13;;;;;;;1.97;1.87;;;57.90;23.30;;;;;;5012539;28;20408;-70
2022/05/22 12:50:49;;;;;;;2.00;1.90;;;57.80;23.50;;;;;;5012415;28;20446;-70
2022/05/22 12:53:29;;;;;;;2.10;2.00;;;57.60;23.80;;;;;;5012492;28;20373;-71
2022/05/22 12:55:55;;;;;;;1.80;1.70;;;57.40;23.70;;;;;;5010976;28;20446;-72
2022/05/22 12:58:39;;;;;;;1.90;1.80;;;57.10;23.70;;;;;;5012448;28;20432;-71
2022/05/22 13:01:42;;;;;;;1.90;1.80;;;56.90;23.80;;;;;;5012525;28;20390;-70
2022/05/22 13:04:17;;;;;;;2.03;1.93;;;56.60;24.30;;;;;;5011990;28;20513;-72
2022/05/22 13:06:47;;;;;;;1.70;1.60;;;56.30;23.80;;;;;;5012124;28;20481;-72
2022/05/22 13:09:24;;;;;;;1.60;1.50;;;56.10;23.90;;;;;;5012243;28;20423;-72
2022/05/22 13:12:24;;;;;;;1.70;1.60;;;55.70;24.00;;;;;;5012332;28;20852;-72
2022/05/22 13:15:01;;;;;;;1.60;1.50;;;55.20;24.60;;;;;;5012120;28;20442;-71
2022/05/22 13:17:35;;;;;;;1.50;1.40;;;54.20;24.30;;;;;;5011840;28;20521;-71
2022/05/22 13:20:02;;;;;;;1.50;1.40;;;53.10;24.30;;;;;;5010725;28;20402;-71
2022/05/22 13:22:32;;;;;;;1.40;1.30;;;51.90;24.60;;;;;;5012174;28;20444;-71
2022/05/22 13:24:59;;;;;;;1.57;1.20;;;50.60;24.90;;;;;;5012276;28;20905;-71
2022/05/22 13:27:31;;;;;;;1.50;1.40;;;49.40;25.20;;;;;;5010534;28;20916;-70